sensor_id;sensor_type;location;lat;lon;timestamp;P1;durP1;ratioP1;P2;durP2;ratioP2
72413;SDS011;60995;52.154;4.498;2023-04-25T00:00:51;19.58;;;3.67;;
72413;SDS011;60995;52.154;4.498;2023-04-25T00:03:08;20.88;;;3.90;;
72413;SDS011;60995;52.154;4.498;2023-04-25T00:05:25;19.75;;;3.80;;
72413;SDS011;60995;52.154;4.498;2023-04-25T00:07:42;18.25;;;4.50;;
72413;SDS011;60995;52.154;4.498;2023-04-25T00:09:59;23.05;;;3.90;;
72413;SDS011;60995;52.154;4.498;2023-04-25T00:12:18;24.58;;;3.70;;
72413;SDS011;60995;52.154;4.498;2023-04-25T00:14:35;26.23;;;4.28;;
72413;SDS011;60995;52.154;4.498;2023-04-25T00:16:54;23.90;;;3.58;;
72413;SDS011;60995;52.154;4.498;2023-04-25T00:19:10;21.85;;;3.35;;
72413;SDS011;60995;52.154;4.498;2023-04-25T00:21:27;22.77;;;3.72;;
72413;SDS011;60995;52.154;4.498;2023-04-25T00:23:43;16.83;;;2.85;;
72413;SDS011;60995;52.154;4.498;2023-04-25T00:26:01;52.40;;;22.77;;
72413;SDS011;60995;52.154;4.498;2023-04-25T00:28:18;26.27;;;4.20;;
72413;SDS011;60995;52.154;4.498;2023-04-25T00:30:34;17.33;;;3.85;;
72413;SDS011;60995;52.154;4.498;2023-04-25T00:32:51;18.23;;;3.75;;
72413;SDS011;60995;52.154;4.498;2023-04-25T00:35:08;18.83;;;3.15;;
72413;SDS011;60995;52.154;4.498;2023-04-25T00:37:25;20.45;;;2.95;;
72413;SDS011;60995;52.154;4.498;2023-04-25T00:39:41;26.05;;;3.28;;
72413;SDS011;60995;52.154;4.498;2023-04-25T00:41:58;23.77;;;3.67;;
72413;SDS011;60995;52.154;4.498;2023-04-25T00:44:15;25.17;;;3.95;;
72413;SDS011;60995;52.154;4.498;2023-04-25T00:46:32;19.55;;;4.53;;
72413;SDS011;60995;52.154;4.498;2023-04-25T00:48:51;24.83;;;4.13;;
72413;SDS011;60995;52.154;4.498;2023-04-25T00:51:07;24.50;;;3.40;;
72413;SDS011;60995;52.154;4.498;2023-04-25T00:53:32;27.45;;;3.75;;
72413;SDS011;60995;52.154;4.498;2023-04-25T00:55:49;23.50;;;3.13;;
72413;SDS011;60995;52.154;4.498;2023-04-25T00:58:08;15.60;;;2.75;;
72413;SDS011;60995;52.154;4.498;2023-04-25T01:00:25;15.68;;;2.88;;
72413;SDS011;60995;52.154;4.498;2023-04-25T01:02:42;20.90;;;3.00;;
72413;SDS011;60995;52.154;4.498;2023-04-25T01:05:00;20.60;;;3.10;;
72413;SDS011;60995;52.154;4.498;2023-04-25T01:07:17;19.52;;;3.40;;
72413;SDS011;60995;52.154;4.498;2023-04-25T01:09:33;18.33;;;3.38;;
72413;SDS011;60995;52.154;4.498;2023-04-25T01:11:50;15.75;;;3.13;;
72413;SDS011;60995;52.154;4.498;2023-04-25T01:14:09;23.23;;;3.25;;
72413;SDS011;60995;52.154;4.498;2023-04-25T01:16:28;17.75;;;2.75;;
72413;SDS011;60995;52.154;4.498;2023-04-25T01:18:46;23.48;;;3.15;;
72413;SDS011;60995;52.154;4.498;2023-04-25T01:21:07;19.27;;;2.90;;
72413;SDS011;60995;52.154;4.498;2023-04-25T01:23:28;17.45;;;3.03;;
72413;SDS011;60995;52.154;4.498;2023-04-25T01:25:45;20.77;;;3.17;;
72413;SDS011;60995;52.154;4.498;2023-04-25T01:28:03;14.88;;;2.63;;
72413;SDS011;60995;52.154;4.498;2023-04-25T01:30:19;15.07;;;2.50;;
72413;SDS011;60995;52.154;4.498;2023-04-25T01:32:36;22.30;;;3.33;;
72413;SDS011;60995;52.154;4.498;2023-04-25T01:34:55;17.10;;;2.70;;
72413;SDS011;60995;52.154;4.498;2023-04-25T01:37:15;15.10;;;2.50;;
72413;SDS011;60995;52.154;4.498;2023-04-25T01:39:32;17.98;;;3.42;;
72413;SDS011;60995;52.154;4.498;2023-04-25T01:41:49;14.00;;;2.63;;
72413;SDS011;60995;52.154;4.498;2023-04-25T01:44:05;14.15;;;2.88;;
72413;SDS011;60995;52.154;4.498;2023-04-25T01:46:22;15.65;;;2.90;;
72413;SDS011;60995;52.154;4.498;2023-04-25T01:48:38;16.75;;;2.70;;
72413;SDS011;60995;52.154;4.498;2023-04-25T01:50:55;15.57;;;2.47;;
72413;SDS011;60995;52.154;4.498;2023-04-25T01:53:11;19.17;;;2.80;;
72413;SDS011;60995;52.154;4.498;2023-04-25T01:55:30;17.52;;;2.70;;
72413;SDS011;60995;52.154;4.498;2023-04-25T01:57:49;14.65;;;2.92;;
72413;SDS011;60995;52.154;4.498;2023-04-25T02:00:06;17.30;;;2.70;;
72413;SDS011;60995;52.154;4.498;2023-04-25T02:02:33;19.27;;;2.78;;
72413;SDS011;60995;52.154;4.498;2023-04-25T02:04:53;17.77;;;3.03;;
72413;SDS011;60995;52.154;4.498;2023-04-25T02:07:13;14.70;;;2.63;;
72413;SDS011;60995;52.154;4.498;2023-04-25T02:09:30;20.88;;;3.60;;
72413;SDS011;60995;52.154;4.498;2023-04-25T02:11:46;20.30;;;2.97;;
72413;SDS011;60995;52.154;4.498;2023-04-25T02:14:03;11.98;;;2.55;;
72413;SDS011;60995;52.154;4.498;2023-04-25T02:16:20;14.77;;;2.22;;
72413;SDS011;60995;52.154;4.498;2023-04-25T02:18:36;18.13;;;2.92;;
72413;SDS011;60995;52.154;4.498;2023-04-25T02:20:54;11.30;;;2.40;;
72413;SDS011;60995;52.154;4.498;2023-04-25T02:23:15;18.20;;;2.72;;
72413;SDS011;60995;52.154;4.498;2023-04-25T02:25:31;16.00;;;2.40;;
72413;SDS011;60995;52.154;4.498;2023-04-25T02:27:48;14.65;;;2.20;;
72413;SDS011;60995;52.154;4.498;2023-04-25T02:30:05;17.50;;;2.30;;
72413;SDS011;60995;52.154;4.498;2023-04-25T02:32:22;16.67;;;2.20;;
72413;SDS011;60995;52.154;4.498;2023-04-25T02:34:38;16.75;;;2.42;;
72413;SDS011;60995;52.154;4.498;2023-04-25T02:36:55;15.80;;;1.98;;
72413;SDS011;60995;52.154;4.498;2023-04-25T02:39:11;15.75;;;2.35;;
72413;SDS011;60995;52.154;4.498;2023-04-25T02:41:28;15.65;;;2.47;;
72413;SDS011;60995;52.154;4.498;2023-04-25T02:43:45;12.98;;;2.47;;
72413;SDS011;60995;52.154;4.498;2023-04-25T02:46:05;14.70;;;2.53;;
72413;SDS011;60995;52.154;4.498;2023-04-25T02:48:25;14.65;;;2.45;;
72413;SDS011;60995;52.154;4.498;2023-04-25T02:50:51;17.58;;;2.50;;
72413;SDS011;60995;52.154;4.498;2023-04-25T02:53:09;14.52;;;2.40;;
72413;SDS011;60995;52.154;4.498;2023-04-25T02:55:26;19.55;;;2.85;;
72413;SDS011;60995;52.154;4.498;2023-04-25T02:57:42;19.20;;;3.15;;
72413;SDS011;60995;52.154;4.498;2023-04-25T02:59:59;17.23;;;2.80;;
72413;SDS011;60995;52.154;4.498;2023-04-25T03:02:15;18.45;;;3.10;;
72413;SDS011;60995;52.154;4.498;2023-04-25T03:04:34;15.68;;;2.35;;
72413;SDS011;60995;52.154;4.498;2023-04-25T03:06:53;26.73;;;3.30;;
72413;SDS011;60995;52.154;4.498;2023-04-25T03:09:10;12.82;;;2.33;;
72413;SDS011;60995;52.154;4.498;2023-04-25T03:11:26;13.82;;;3.03;;
72413;SDS011;60995;52.154;4.498;2023-04-25T03:13:43;17.08;;;2.70;;
72413;SDS011;60995;52.154;4.498;2023-04-25T03:16:00;15.48;;;2.65;;
72413;SDS011;60995;52.154;4.498;2023-04-25T03:18:16;16.15;;;2.63;;
72413;SDS011;60995;52.154;4.498;2023-04-25T03:20:33;12.45;;;2.20;;
72413;SDS011;60995;52.154;4.498;2023-04-25T03:22:49;21.40;;;2.90;;
72413;SDS011;60995;52.154;4.498;2023-04-25T03:25:09;17.35;;;2.25;;
72413;SDS011;60995;52.154;4.498;2023-04-25T03:27:25;16.13;;;2.90;;
72413;SDS011;60995;52.154;4.498;2023-04-25T03:29:42;18.08;;;2.55;;
72413;SDS011;60995;52.154;4.498;2023-04-25T03:32:07;16.27;;;2.65;;
72413;SDS011;60995;52.154;4.498;2023-04-25T03:34:23;18.08;;;2.67;;
72413;SDS011;60995;52.154;4.498;2023-04-25T03:36:40;16.30;;;2.90;;
72413;SDS011;60995;52.154;4.498;2023-04-25T03:38:56;18.70;;;2.58;;
72413;SDS011;60995;52.154;4.498;2023-04-25T03:41:13;22.67;;;3.63;;
72413;SDS011;60995;52.154;4.498;2023-04-25T03:43:29;21.08;;;3.28;;
72413;SDS011;60995;52.154;4.498;2023-04-25T03:45:46;24.98;;;3.88;;
72413;SDS011;60995;52.154;4.498;2023-04-25T03:48:02;17.02;;;2.60;;
72413;SDS011;60995;52.154;4.498;2023-04-25T03:50:19;17.77;;;2.80;;
72413;SDS011;60995;52.154;4.498;2023-04-25T03:52:38;17.20;;;3.25;;
72413;SDS011;60995;52.154;4.498;2023-04-25T03:54:55;17.45;;;3.10;;
72413;SDS011;60995;52.154;4.498;2023-04-25T03:57:12;17.05;;;2.90;;
72413;SDS011;60995;52.154;4.498;2023-04-25T03:59:28;18.90;;;3.00;;
72413;SDS011;60995;52.154;4.498;2023-04-25T04:01:45;18.40;;;3.00;;
72413;SDS011;60995;52.154;4.498;2023-04-25T04:04:01;21.63;;;3.67;;
72413;SDS011;60995;52.154;4.498;2023-04-25T04:06:18;17.80;;;3.03;;
72413;SDS011;60995;52.154;4.498;2023-04-25T04:08:36;14.30;;;2.78;;
72413;SDS011;60995;52.154;4.498;2023-04-25T04:10:52;16.48;;;3.38;;
72413;SDS011;60995;52.154;4.498;2023-04-25T04:13:08;27.95;;;3.63;;
72413;SDS011;60995;52.154;4.498;2023-04-25T04:15:25;26.73;;;3.22;;
72413;SDS011;60995;52.154;4.498;2023-04-25T04:17:50;57.50;;;23.25;;
72413;SDS011;60995;52.154;4.498;2023-04-25T04:20:12;15.05;;;2.70;;
72413;SDS011;60995;52.154;4.498;2023-04-25T04:22:29;17.88;;;2.67;;
72413;SDS011;60995;52.154;4.498;2023-04-25T04:24:45;16.90;;;2.63;;
72413;SDS011;60995;52.154;4.498;2023-04-25T04:27:02;12.73;;;2.30;;
72413;SDS011;60995;52.154;4.498;2023-04-25T04:29:19;15.60;;;2.05;;
72413;SDS011;60995;52.154;4.498;2023-04-25T04:31:38;13.13;;;2.75;;
72413;SDS011;60995;52.154;4.498;2023-04-25T04:33:57;13.55;;;2.10;;
72413;SDS011;60995;52.154;4.498;2023-04-25T04:36:14;13.75;;;2.40;;
72413;SDS011;60995;52.154;4.498;2023-04-25T04:38:31;15.88;;;2.70;;
72413;SDS011;60995;52.154;4.498;2023-04-25T04:40:48;19.05;;;2.47;;
72413;SDS011;60995;52.154;4.498;2023-04-25T04:43:06;13.95;;;2.28;;
72413;SDS011;60995;52.154;4.498;2023-04-25T04:45:24;10.60;;;2.35;;
72413;SDS011;60995;52.154;4.498;2023-04-25T04:47:41;17.67;;;2.38;;
72413;SDS011;60995;52.154;4.498;2023-04-25T04:49:57;14.35;;;2.22;;
72413;SDS011;60995;52.154;4.498;2023-04-25T04:52:13;12.52;;;2.35;;
72413;SDS011;60995;52.154;4.498;2023-04-25T04:54:30;14.73;;;2.42;;
72413;SDS011;60995;52.154;4.498;2023-04-25T04:56:46;16.92;;;2.45;;
72413;SDS011;60995;52.154;4.498;2023-04-25T04:59:02;17.60;;;2.25;;
72413;SDS011;60995;52.154;4.498;2023-04-25T05:01:19;12.10;;;2.30;;
72413;SDS011;60995;52.154;4.498;2023-04-25T05:03:35;16.02;;;2.33;;
72413;SDS011;60995;52.154;4.498;2023-04-25T05:05:51;13.85;;;2.22;;
72413;SDS011;60995;52.154;4.498;2023-04-25T05:08:07;16.63;;;2.42;;
72413;SDS011;60995;52.154;4.498;2023-04-25T05:10:25;11.00;;;1.85;;
72413;SDS011;60995;52.154;4.498;2023-04-25T05:12:41;9.40;;;1.85;;
72413;SDS011;60995;52.154;4.498;2023-04-25T05:14:57;12.93;;;1.60;;
72413;SDS011;60995;52.154;4.498;2023-04-25T05:17:14;8.00;;;1.67;;
72413;SDS011;60995;52.154;4.498;2023-04-25T05:19:32;10.43;;;1.95;;
72413;SDS011;60995;52.154;4.498;2023-04-25T05:21:52;10.80;;;2.10;;
72413;SDS011;60995;52.154;4.498;2023-04-25T05:24:08;8.27;;;1.90;;
72413;SDS011;60995;52.154;4.498;2023-04-25T05:26:28;10.18;;;1.65;;
72413;SDS011;60995;52.154;4.498;2023-04-25T05:28:46;13.02;;;2.08;;
72413;SDS011;60995;52.154;4.498;2023-04-25T05:31:02;7.78;;;1.55;;
72413;SDS011;60995;52.154;4.498;2023-04-25T05:33:19;7.50;;;1.60;;
72413;SDS011;60995;52.154;4.498;2023-04-25T05:35:36;9.65;;;1.95;;
72413;SDS011;60995;52.154;4.498;2023-04-25T05:37:52;13.30;;;2.08;;
72413;SDS011;60995;52.154;4.498;2023-04-25T05:40:08;11.52;;;2.25;;
72413;SDS011;60995;52.154;4.498;2023-04-25T05:42:25;9.10;;;2.63;;
72413;SDS011;60995;52.154;4.498;2023-04-25T05:44:42;8.40;;;2.20;;
72413;SDS011;60995;52.154;4.498;2023-04-25T05:46:58;10.93;;;2.20;;
72413;SDS011;60995;52.154;4.498;2023-04-25T05:49:15;14.25;;;2.50;;
72413;SDS011;60995;52.154;4.498;2023-04-25T05:51:31;14.75;;;2.45;;
72413;SDS011;60995;52.154;4.498;2023-04-25T05:53:48;12.25;;;1.98;;
72413;SDS011;60995;52.154;4.498;2023-04-25T05:56:04;11.70;;;2.30;;
72413;SDS011;60995;52.154;4.498;2023-04-25T05:58:20;12.93;;;2.25;;
72413;SDS011;60995;52.154;4.498;2023-04-25T06:00:37;9.48;;;2.08;;
72413;SDS011;60995;52.154;4.498;2023-04-25T06:02:55;12.77;;;2.50;;
72413;SDS011;60995;52.154;4.498;2023-04-25T06:05:11;12.07;;;2.80;;
72413;SDS011;60995;52.154;4.498;2023-04-25T06:07:28;17.85;;;2.70;;
72413;SDS011;60995;52.154;4.498;2023-04-25T06:09:45;11.85;;;2.47;;
72413;SDS011;60995;52.154;4.498;2023-04-25T06:12:02;15.55;;;2.53;;
72413;SDS011;60995;52.154;4.498;2023-04-25T06:14:20;15.10;;;3.15;;
72413;SDS011;60995;52.154;4.498;2023-04-25T06:16:36;16.38;;;4.80;;
72413;SDS011;60995;52.154;4.498;2023-04-25T06:18:52;20.42;;;5.35;;
72413;SDS011;60995;52.154;4.498;2023-04-25T06:21:09;17.58;;;5.40;;
72413;SDS011;60995;52.154;4.498;2023-04-25T06:23:26;13.23;;;3.58;;
72413;SDS011;60995;52.154;4.498;2023-04-25T06:25:42;12.88;;;2.78;;
72413;SDS011;60995;52.154;4.498;2023-04-25T06:27:58;13.90;;;2.45;;
72413;SDS011;60995;52.154;4.498;2023-04-25T06:30:18;13.63;;;2.00;;
72413;SDS011;60995;52.154;4.498;2023-04-25T06:32:38;14.80;;;2.40;;
72413;SDS011;60995;52.154;4.498;2023-04-25T06:34:54;16.48;;;2.70;;
72413;SDS011;60995;52.154;4.498;2023-04-25T06:37:11;10.20;;;2.08;;
72413;SDS011;60995;52.154;4.498;2023-04-25T06:39:27;11.45;;;1.98;;
72413;SDS011;60995;52.154;4.498;2023-04-25T06:41:43;12.52;;;2.20;;
72413;SDS011;60995;52.154;4.498;2023-04-25T06:44:00;10.73;;;1.70;;
72413;SDS011;60995;52.154;4.498;2023-04-25T06:46:17;12.95;;;2.17;;
72413;SDS011;60995;52.154;4.498;2023-04-25T06:48:33;10.23;;;1.75;;
72413;SDS011;60995;52.154;4.498;2023-04-25T06:50:50;11.85;;;2.00;;
72413;SDS011;60995;52.154;4.498;2023-04-25T06:53:06;13.02;;;1.60;;
72413;SDS011;60995;52.154;4.498;2023-04-25T06:55:24;13.02;;;1.70;;
72413;SDS011;60995;52.154;4.498;2023-04-25T06:57:40;10.73;;;1.60;;
72413;SDS011;60995;52.154;4.498;2023-04-25T06:59:57;11.02;;;2.00;;
72413;SDS011;60995;52.154;4.498;2023-04-25T07:02:13;10.63;;;2.17;;
72413;SDS011;60995;52.154;4.498;2023-04-25T07:04:29;11.85;;;1.98;;
72413;SDS011;60995;52.154;4.498;2023-04-25T07:06:46;11.55;;;1.95;;
72413;SDS011;60995;52.154;4.498;2023-04-25T07:09:03;13.75;;;2.00;;
72413;SDS011;60995;52.154;4.498;2023-04-25T07:11:21;14.23;;;3.00;;
72413;SDS011;60995;52.154;4.498;2023-04-25T07:13:37;10.18;;;1.83;;
72413;SDS011;60995;52.154;4.498;2023-04-25T07:15:53;8.48;;;1.60;;
72413;SDS011;60995;52.154;4.498;2023-04-25T07:18:10;15.73;;;5.72;;
72413;SDS011;60995;52.154;4.498;2023-04-25T07:20:26;12.95;;;3.03;;
72413;SDS011;60995;52.154;4.498;2023-04-25T07:22:43;9.73;;;1.60;;
72413;SDS011;60995;52.154;4.498;2023-04-25T07:24:59;7.85;;;1.60;;
72413;SDS011;60995;52.154;4.498;2023-04-25T07:27:16;10.65;;;1.80;;
72413;SDS011;60995;52.154;4.498;2023-04-25T07:29:32;17.55;;;1.95;;
72413;SDS011;60995;52.154;4.498;2023-04-25T07:31:51;8.48;;;1.52;;
72413;SDS011;60995;52.154;4.498;2023-04-25T07:34:08;9.27;;;1.60;;
72413;SDS011;60995;52.154;4.498;2023-04-25T07:36:25;8.00;;;1.60;;
72413;SDS011;60995;52.154;4.498;2023-04-25T07:38:42;10.27;;;1.75;;
72413;SDS011;60995;52.154;4.498;2023-04-25T07:40:58;10.57;;;1.92;;
72413;SDS011;60995;52.154;4.498;2023-04-25T07:43:15;10.35;;;1.80;;
72413;SDS011;60995;52.154;4.498;2023-04-25T07:45:32;16.25;;;1.95;;
72413;SDS011;60995;52.154;4.498;2023-04-25T07:47:48;11.20;;;1.73;;
72413;SDS011;60995;52.154;4.498;2023-04-25T07:50:05;12.45;;;1.92;;
72413;SDS011;60995;52.154;4.498;2023-04-25T07:52:22;10.88;;;3.10;;
72413;SDS011;60995;52.154;4.498;2023-04-25T07:54:39;9.45;;;1.80;;
72413;SDS011;60995;52.154;4.498;2023-04-25T07:56:56;11.77;;;1.80;;
72413;SDS011;60995;52.154;4.498;2023-04-25T07:59:12;14.07;;;2.28;;
72413;SDS011;60995;52.154;4.498;2023-04-25T08:01:29;10.52;;;1.60;;
72413;SDS011;60995;52.154;4.498;2023-04-25T08:03:45;9.45;;;1.63;;
72413;SDS011;60995;52.154;4.498;2023-04-25T08:06:04;7.60;;;1.50;;
72413;SDS011;60995;52.154;4.498;2023-04-25T08:08:26;8.32;;;1.42;;
72413;SDS011;60995;52.154;4.498;2023-04-25T08:10:45;15.18;;;3.60;;
72413;SDS011;60995;52.154;4.498;2023-04-25T08:13:03;9.20;;;2.10;;
72413;SDS011;60995;52.154;4.498;2023-04-25T08:15:20;8.63;;;1.42;;
72413;SDS011;60995;52.154;4.498;2023-04-25T08:17:39;7.60;;;1.30;;
72413;SDS011;60995;52.154;4.498;2023-04-25T08:19:59;9.95;;;1.33;;
72413;SDS011;60995;52.154;4.498;2023-04-25T08:22:16;10.77;;;1.70;;
72413;SDS011;60995;52.154;4.498;2023-04-25T08:24:34;8.48;;;1.30;;
72413;SDS011;60995;52.154;4.498;2023-04-25T08:26:56;9.73;;;1.58;;
72413;SDS011;60995;52.154;4.498;2023-04-25T08:29:18;11.63;;;1.60;;
72413;SDS011;60995;52.154;4.498;2023-04-25T08:31:35;11.63;;;1.48;;
72413;SDS011;60995;52.154;4.498;2023-04-25T08:33:53;7.10;;;1.35;;
72413;SDS011;60995;52.154;4.498;2023-04-25T08:36:11;6.72;;;1.10;;
72413;SDS011;60995;52.154;4.498;2023-04-25T08:38:28;7.72;;;1.40;;
72413;SDS011;60995;52.154;4.498;2023-04-25T08:40:45;8.50;;;1.40;;
72413;SDS011;60995;52.154;4.498;2023-04-25T08:43:13;6.82;;;1.70;;
72413;SDS011;60995;52.154;4.498;2023-04-25T08:47:51;13.23;;;1.70;;
72413;SDS011;60995;52.154;4.498;2023-04-25T08:50:15;8.65;;;1.40;;
72413;SDS011;60995;52.154;4.498;2023-04-25T08:52:39;7.70;;;1.38;;
72413;SDS011;60995;52.154;4.498;2023-04-25T08:55:06;8.35;;;1.55;;
72413;SDS011;60995;52.154;4.498;2023-04-25T08:57:26;6.13;;;1.52;;
72413;SDS011;60995;52.154;4.498;2023-04-25T08:59:45;8.80;;;1.60;;
72413;SDS011;60995;52.154;4.498;2023-04-25T09:02:13;6.22;;;1.30;;
72413;SDS011;60995;52.154;4.498;2023-04-25T09:04:36;11.38;;;2.10;;
72413;SDS011;60995;52.154;4.498;2023-04-25T09:06:53;10.60;;;1.40;;
72413;SDS011;60995;52.154;4.498;2023-04-25T09:09:09;9.50;;;1.75;;
72413;SDS011;60995;52.154;4.498;2023-04-25T09:11:26;11.77;;;1.60;;
72413;SDS011;60995;52.154;4.498;2023-04-25T09:13:43;12.82;;;2.15;;
72413;SDS011;60995;52.154;4.498;2023-04-25T09:16:02;11.68;;;1.80;;
72413;SDS011;60995;52.154;4.498;2023-04-25T09:18:38;8.75;;;1.60;;
72413;SDS011;60995;52.154;4.498;2023-04-25T09:21:04;8.70;;;1.20;;
72413;SDS011;60995;52.154;4.498;2023-04-25T09:23:28;4.68;;;1.00;;
72413;SDS011;60995;52.154;4.498;2023-04-25T09:25:44;7.35;;;1.50;;
72413;SDS011;60995;52.154;4.498;2023-04-25T09:28:11;6.65;;;1.20;;
72413;SDS011;60995;52.154;4.498;2023-04-25T09:30:28;8.93;;;1.38;;
72413;SDS011;60995;52.154;4.498;2023-04-25T09:32:47;6.38;;;1.48;;
72413;SDS011;60995;52.154;4.498;2023-04-25T09:35:06;13.27;;;1.80;;
72413;SDS011;60995;52.154;4.498;2023-04-25T09:37:24;10.20;;;1.70;;
72413;SDS011;60995;52.154;4.498;2023-04-25T09:39:47;8.97;;;1.80;;
72413;SDS011;60995;52.154;4.498;2023-04-25T09:42:24;16.17;;;2.03;;
72413;SDS011;60995;52.154;4.498;2023-04-25T09:44:43;10.02;;;1.85;;
72413;SDS011;60995;52.154;4.498;2023-04-25T09:47:02;10.00;;;1.90;;
72413;SDS011;60995;52.154;4.498;2023-04-25T09:49:27;10.15;;;1.80;;
72413;SDS011;60995;52.154;4.498;2023-04-25T09:51:53;11.60;;;1.83;;
72413;SDS011;60995;52.154;4.498;2023-04-25T09:54:18;11.13;;;1.60;;
72413;SDS011;60995;52.154;4.498;2023-04-25T09:56:35;9.05;;;1.45;;
72413;SDS011;60995;52.154;4.498;2023-04-25T09:59:03;8.73;;;1.75;;
72413;SDS011;60995;52.154;4.498;2023-04-25T10:01:22;13.80;;;1.90;;
72413;SDS011;60995;52.154;4.498;2023-04-25T10:03:41;8.13;;;1.50;;
72413;SDS011;60995;52.154;4.498;2023-04-25T10:06:02;13.13;;;2.20;;
72413;SDS011;60995;52.154;4.498;2023-04-25T10:08:24;9.07;;;1.55;;
72413;SDS011;60995;52.154;4.498;2023-04-25T10:10:50;6.45;;;1.73;;
72413;SDS011;60995;52.154;4.498;2023-04-25T10:13:11;10.07;;;1.35;;
72413;SDS011;60995;52.154;4.498;2023-04-25T10:15:30;6.45;;;1.25;;
72413;SDS011;60995;52.154;4.498;2023-04-25T10:17:51;12.50;;;1.60;;
72413;SDS011;60995;52.154;4.498;2023-04-25T10:20:11;11.45;;;1.77;;
72413;SDS011;60995;52.154;4.498;2023-04-25T10:22:29;8.68;;;1.67;;
72413;SDS011;60995;52.154;4.498;2023-04-25T10:25:12;11.98;;;1.77;;
72413;SDS011;60995;52.154;4.498;2023-04-25T10:27:42;7.97;;;1.88;;
72413;SDS011;60995;52.154;4.498;2023-04-25T10:30:10;9.75;;;1.30;;
72413;SDS011;60995;52.154;4.498;2023-04-25T10:32:36;7.13;;;1.50;;
72413;SDS011;60995;52.154;4.498;2023-04-25T10:34:55;11.27;;;1.73;;
72413;SDS011;60995;52.154;4.498;2023-04-25T10:37:12;8.25;;;1.50;;
72413;SDS011;60995;52.154;4.498;2023-04-25T10:39:33;6.75;;;1.65;;
72413;SDS011;60995;52.154;4.498;2023-04-25T10:41:55;10.35;;;1.48;;
72413;SDS011;60995;52.154;4.498;2023-04-25T10:44:17;8.88;;;1.67;;
72413;SDS011;60995;52.154;4.498;2023-04-25T10:46:36;10.52;;;1.90;;
72413;SDS011;60995;52.154;4.498;2023-04-25T10:48:54;10.60;;;1.67;;
72413;SDS011;60995;52.154;4.498;2023-04-25T10:53:46;8.88;;;1.70;;
72413;SDS011;60995;52.154;4.498;2023-04-25T11:01:35;12.70;;;1.63;;
72413;SDS011;60995;52.154;4.498;2023-04-25T11:03:58;7.93;;;1.70;;
72413;SDS011;60995;52.154;4.498;2023-04-25T11:06:20;12.80;;;1.92;;
72413;SDS011;60995;52.154;4.498;2023-04-25T11:08:54;8.98;;;1.60;;
72413;SDS011;60995;52.154;4.498;2023-04-25T11:11:11;9.18;;;2.25;;
72413;SDS011;60995;52.154;4.498;2023-04-25T11:13:29;13.23;;;2.13;;
72413;SDS011;60995;52.154;4.498;2023-04-25T11:15:50;10.13;;;2.00;;
72413;SDS011;60995;52.154;4.498;2023-04-25T11:18:07;9.70;;;1.90;;
72413;SDS011;60995;52.154;4.498;2023-04-25T11:20:25;6.80;;;1.60;;
72413;SDS011;60995;52.154;4.498;2023-04-25T11:22:45;10.15;;;1.88;;
72413;SDS011;60995;52.154;4.498;2023-04-25T11:25:09;8.20;;;1.85;;
72413;SDS011;60995;52.154;4.498;2023-04-25T11:27:28;6.72;;;1.40;;
72413;SDS011;60995;52.154;4.498;2023-04-25T11:29:45;11.23;;;1.60;;
72413;SDS011;60995;52.154;4.498;2023-04-25T11:32:03;8.43;;;1.38;;
72413;SDS011;60995;52.154;4.498;2023-04-25T11:34:20;7.43;;;1.30;;
72413;SDS011;60995;52.154;4.498;2023-04-25T11:36:38;12.30;;;1.80;;
72413;SDS011;60995;52.154;4.498;2023-04-25T11:38:55;15.15;;;1.55;;
72413;SDS011;60995;52.154;4.498;2023-04-25T11:41:11;10.80;;;1.80;;
72413;SDS011;60995;52.154;4.498;2023-04-25T11:43:28;9.05;;;1.60;;
72413;SDS011;60995;52.154;4.498;2023-04-25T11:45:48;11.50;;;1.70;;
72413;SDS011;60995;52.154;4.498;2023-04-25T11:48:06;9.82;;;1.30;;
72413;SDS011;60995;52.154;4.498;2023-04-25T11:50:23;9.60;;;1.33;;
72413;SDS011;60995;52.154;4.498;2023-04-25T11:52:45;11.15;;;1.67;;
72413;SDS011;60995;52.154;4.498;2023-04-25T11:55:06;8.30;;;1.27;;
72413;SDS011;60995;52.154;4.498;2023-04-25T11:57:30;6.80;;;1.27;;
72413;SDS011;60995;52.154;4.498;2023-04-25T11:59:47;11.10;;;1.70;;
72413;SDS011;60995;52.154;4.498;2023-04-25T12:02:03;9.27;;;1.50;;
72413;SDS011;60995;52.154;4.498;2023-04-25T12:04:23;9.15;;;1.65;;
72413;SDS011;60995;52.154;4.498;2023-04-25T12:06:41;9.00;;;1.40;;
72413;SDS011;60995;52.154;4.498;2023-04-25T12:09:09;11.60;;;2.20;;
72413;SDS011;60995;52.154;4.498;2023-04-25T12:11:29;12.07;;;1.80;;
72413;SDS011;60995;52.154;4.498;2023-04-25T12:14:04;13.43;;;1.88;;
72413;SDS011;60995;52.154;4.498;2023-04-25T12:16:21;15.65;;;1.90;;
72413;SDS011;60995;52.154;4.498;2023-04-25T12:21:43;11.75;;;1.88;;
72413;SDS011;60995;52.154;4.498;2023-04-25T12:27:25;13.20;;;1.67;;
72413;SDS011;60995;52.154;4.498;2023-04-25T12:33:42;8.77;;;1.88;;
72413;SDS011;60995;52.154;4.498;2023-04-25T12:36:04;9.77;;;1.55;;
72413;SDS011;60995;52.154;4.498;2023-04-25T12:38:55;8.02;;;1.42;;
72413;SDS011;60995;52.154;4.498;2023-04-25T12:41:19;10.07;;;1.52;;
72413;SDS011;60995;52.154;4.498;2023-04-25T12:43:58;10.95;;;1.70;;
72413;SDS011;60995;52.154;4.498;2023-04-25T12:46:24;9.27;;;1.55;;
72413;SDS011;60995;52.154;4.498;2023-04-25T12:49:02;11.38;;;1.65;;
72413;SDS011;60995;52.154;4.498;2023-04-25T12:51:35;10.73;;;2.00;;
72413;SDS011;60995;52.154;4.498;2023-04-25T12:54:08;9.55;;;1.80;;
72413;SDS011;60995;52.154;4.498;2023-04-25T12:56:25;12.63;;;1.73;;
72413;SDS011;60995;52.154;4.498;2023-04-25T12:58:44;10.57;;;1.52;;
72413;SDS011;60995;52.154;4.498;2023-04-25T13:01:04;9.75;;;1.27;;
72413;SDS011;60995;52.154;4.498;2023-04-25T13:03:31;11.65;;;1.80;;
72413;SDS011;60995;52.154;4.498;2023-04-25T13:05:48;11.15;;;1.90;;
72413;SDS011;60995;52.154;4.498;2023-04-25T13:08:08;14.48;;;1.92;;
72413;SDS011;60995;52.154;4.498;2023-04-25T13:10:24;13.57;;;1.90;;
72413;SDS011;60995;52.154;4.498;2023-04-25T13:12:41;8.10;;;1.60;;
72413;SDS011;60995;52.154;4.498;2023-04-25T13:15:00;10.88;;;1.77;;
72413;SDS011;60995;52.154;4.498;2023-04-25T13:17:16;16.98;;;4.03;;
72413;SDS011;60995;52.154;4.498;2023-04-25T13:19:33;11.70;;;2.60;;
72413;SDS011;60995;52.154;4.498;2023-04-25T13:21:49;13.70;;;1.95;;
72413;SDS011;60995;52.154;4.498;2023-04-25T13:24:06;11.15;;;1.80;;
72413;SDS011;60995;52.154;4.498;2023-04-25T13:26:25;8.02;;;1.85;;
72413;SDS011;60995;52.154;4.498;2023-04-25T13:28:43;10.15;;;1.67;;
72413;SDS011;60995;52.154;4.498;2023-04-25T13:30:59;8.65;;;1.50;;
72413;SDS011;60995;52.154;4.498;2023-04-25T13:33:19;5.88;;;1.65;;
72413;SDS011;60995;52.154;4.498;2023-04-25T13:35:40;11.18;;;1.73;;
72413;SDS011;60995;52.154;4.498;2023-04-25T13:38:13;6.38;;;1.52;;
72413;SDS011;60995;52.154;4.498;2023-04-25T13:40:29;7.80;;;1.85;;
72413;SDS011;60995;52.154;4.498;2023-04-25T13:42:55;10.32;;;1.60;;
72413;SDS011;60995;52.154;4.498;2023-04-25T13:45:30;7.57;;;1.63;;
72413;SDS011;60995;52.154;4.498;2023-04-25T13:47:51;12.82;;;1.65;;
72413;SDS011;60995;52.154;4.498;2023-04-25T13:50:08;10.25;;;3.08;;
72413;SDS011;60995;52.154;4.498;2023-04-25T13:52:41;7.32;;;1.73;;
72413;SDS011;60995;52.154;4.498;2023-04-25T13:55:01;10.68;;;2.60;;
72413;SDS011;60995;52.154;4.498;2023-04-25T13:57:27;9.90;;;1.90;;
72413;SDS011;60995;52.154;4.498;2023-04-25T13:59:44;8.98;;;1.90;;
72413;SDS011;60995;52.154;4.498;2023-04-25T14:02:00;8.48;;;2.58;;
72413;SDS011;60995;52.154;4.498;2023-04-25T14:04:29;9.27;;;1.80;;
72413;SDS011;60995;52.154;4.498;2023-04-25T14:06:53;11.15;;;2.03;;
72413;SDS011;60995;52.154;4.498;2023-04-25T14:09:23;10.98;;;2.00;;